ミールヌイ の空港の天気 - METARとTAF

Mirny ( UERR / MJZ ) - ロシア ミールヌイ
飛行場実況気象(Metar)
観測時間09/23 09:00 YAKT (09/23 00:00 UTC)
風向・風速不定 1m/s
視程10km以上
天気現象
なし
気温-1℃
湿度86%
気圧1021hPa
METARUERR 230000Z VRB01MPS CAVOK M01/M03 Q1021 R25/CLRD60 NOSIG RMK QFE734/0979
過去の天気等 Google飛行場航空写真 Wunderground天気予報

過去48時間のMETAR

飛行場予報(TAF)
発表時間: 9/23 08:00 YAKT (9/22 23:00 UTC)
予報対象時間: 23日9時 YAKT ~ 24日9時 YAKT
風向・風速南西 3m/s
視程10km以上
なし
TAF UERR 222300Z 2300/2324 23003MPS CAVOK